EGAC 200050Z AUTO 18009KT 9999 NCD 12/08 Q1014 EGAC 200020Z AUTO 19008KT 9999 NCD 13/08 Q1014 EGAC 192350Z AUTO 18006KT 9999 NCD 13/08 Q1015 EGAC 192320Z AUTO 19010KT 9999 NCD 12/08 Q1014 EGAC 192250Z AUTO 19010KT 9999 NCD 13/08 Q1015 EGAC 192220Z AUTO 18008G13KT 9999 NCD 14/08 Q1015 EGAC 192150Z AUTO 19009G14KT 9999 NCD 13/08 Q1015 EGAC 192120Z AUTO 18010G15KT 9999 NCD 14/08 Q1015 EGAC 192050Z AUTO 19011KT 9999 NCD 14/08 Q1015 EGAC 192020Z AUTO 19012G18KT 9999 NCD 15/08 Q1014 EGAC 191950Z AUTO 19011G16KT 9999 NCD 15/08 Q1014 EGAC 191920Z AUTO 17011G18KT 9999 NCD 15/09 Q1014 EGAC 191850Z AUTO 16010KT 9999 NCD 15/10 Q1014 EGAC 191820Z AUTO 17011KT 9999 NCD 15/09 Q1014 EGAC 191750Z AUTO 17013KT 9999 NCD 16/10 Q1014 EGAC 191720Z AUTO 17012G18KT 9999 NCD 16/09 Q1014 EGAC 191650Z AUTO 17011G16KT 9999 NCD 16/09 Q1014 EGAC 191620Z AUTO 17013G20KT 140V200 9999 NCD 16/09 Q1014 EGAC 191550Z AUTO 18015G22KT 9999 NCD 16/09 Q1014 EGAC 191520Z AUTO 17016G23KT 9999 NCD 17/09 Q1014 EGAC 191450Z AUTO 17015G23KT 9999 NCD 17/09 Q1014 EGAC 191420Z AUTO 17016G24KT 9999 NCD 16/08 Q1014 EGAC 191350Z AUTO 18015KT 9999 SCT048/// 16/08 Q1014 EGAC 191320Z AUTO 20014G24KT 170V240 9999 BKN048/// 17/07 Q1014 EGAC 191250Z AUTO 22017G24KT 9999 FEW047/// 17/05 Q1014 EGAC 191220Z AUTO 21017G24KT 9999 SCT045/// 17/05 Q1014 EGAC 191150Z AUTO 20016G22KT 9999 SCT041/// 16/06 Q1014 EGAC 191120Z AUTO 22016G21KT 9999 SCT040/// 16/06 Q1014 EGAC 191050Z AUTO 21016G23KT 9999 NCD 16/06 Q1014 EGAC 191020Z AUTO 22016G23KT 9999 NCD 15/06 Q1014 EGAC 190950Z AUTO 21017KT 9999 FEW032/// 15/07 Q1014 EGAC 190920Z AUTO 21015G22KT 9999 NCD 15/07 Q1014 EGAC 190850Z AUTO 21015G21KT 9999 NCD 14/07 Q1014 EGAC 190820Z AUTO 22015G21KT 9999 NCD 13/07 Q1014 EGAC 190750Z AUTO 22016G23KT 9999 NCD 12/07 Q1014 EGAC 190720Z AUTO 22014G19KT 9999 NCD 12/07 Q1014 EGAC 190650Z AUTO 22012KT 9999 R22/1400D NCD 11/07 Q1014 EGAC 190620Z AUTO 21012G17KT 9999 NCD 10/07 Q1013 EGAC 190550Z AUTO 19008G14KT 9999 NCD 10/07 Q1013 EGAC 190520Z AUTO 19007KT 9999 NCD 09/07 Q1013 EGAC 190450Z AUTO 19006KT 9999 NCD 09/07 Q1013 EGAC 190420Z AUTO 18007KT 9999 NCD 08/07 Q1013 EGAC 190350Z AUTO 19005KT 9999 SCT022/// 09/07 Q1013 EGAC 190320Z AUTO 20007KT 9999 SCT019/// 08/07 Q1012 EGAC 190250Z AUTO 20006KT 9999 NCD 09/07 Q1012 EGAC 190220Z AUTO 23010G17KT 9999 NCD 10/08 Q1011 EGAC 190150Z AUTO 25010G16KT 9999 NCD 11/08 Q1011 EGAC 190120Z AUTO 24010G17KT 210V270 9999 NCD 11/08 Q1010 EGAC 190050Z AUTO 24012G19KT 9999 SCT020/// BKN027/// 12/08 Q1010 EGAC 190020Z AUTO 23014G23KT 9999 -RA FEW019/// BKN029/// OVC035/// 12/09 Q1010 EGAC 182350Z AUTO 21014G19KT 9999 FEW022/// SCT028/// BKN036/// 12/09 Q1009 EGAC 182320Z AUTO 20012KT 9999 NCD 12/09 Q1009 EGAC 182250Z AUTO 21011G17KT 9999 NCD 12/09 Q1008 EGAC 182220Z AUTO 19014G20KT 9999 FEW042/// 12/09 Q1009 EGAC 182150Z AUTO 18013G19KT 9999 SCT038/// 12/10 Q1009 EGAC 182120Z AUTO 18016KT 9999 NCD 12/10 Q1008 EGAC 182050Z AUTO 18017G27KT 9000 -RA NCD 12/11 Q1008 EGAC 182020Z AUTO 18020G33KT 9999 -RA NCD 13/10 Q1008 RERA EGAC 181950Z AUTO 18025G37KT 150V210 8000 -RADZ NCD 14/11 Q1008 EGAC 181920Z AUTO 18022G33KT 140V200 9999 FEW017/// 14/10 Q1007 EGAC 181850Z AUTO 18021G35KT 9999 FEW016/// 14/10 Q1008 EGAC 181820Z AUTO 18022G31KT 9999 NCD 14/10 Q1008 EGAC 181750Z AUTO 17020G32KT 9999 NCD 15/10 Q1009 EGAC 181720Z AUTO 17023G37KT 9999 NCD 15/10 Q1009 EGAC 181650Z AUTO 18021G32KT 9999 NCD 15/10 Q1009 EGAC 181620Z AUTO 17019G31KT 140V210 9999 NCD 15/10 Q1010 EGAC 181550Z AUTO 18020G29KT 9999 NCD 15/10 Q1010 EGAC 181520Z AUTO 18019G29KT 9999 FEW021/// 15/10 Q1011 EGAC 181450Z AUTO 18021G32KT 9999 FEW021/// SCT026/// 15/10 Q1011 EGAC 181420Z AUTO 18020G29KT 9999 SCT021/// 15/10 Q1012 EGAC 181350Z AUTO 18020G31KT 9999 FEW019/// 15/09 Q1012 EGAC 181320Z AUTO 18021G31KT 9999 BKN021/// BKN027/// 15/10 Q1012

METAR Messwerte "BELFAST HARBOUR" EGAC

Zurück zur Übersicht

Ortsname
Ländercode / m ü. NN
Zeit Temperatur Taupunkt Rel.
Luftfeuchte
Luftdruck:
Altimeter
NN
Station
Wind in Beaufort
(Knoten)
Sichtweite
(Meter)
Wolken
(Meter über Grund)
Wettererscheinung
BELFAST HARBOUR
GB 2
Fr 20.05. 02:5012876 %1014
1014
1014
S 3 (9)>= 10000  
BELFAST HARBOUR
GB 2
Fr 20.05. 02:2013872 %1014
1014
1014
S 3 (8)>= 10000  
BELFAST HARBOUR
GB 2
Fr 20.05. 01:5013872 %1015
1015
1015
S 2 (6)>= 10000  
BELFAST HARBOUR
GB 2
Fr 20.05. 01:2012876 %1014
1014
1014
S 3 (10)>= 10000  
BELFAST HARBOUR
GB 2
Fr 20.05. 00:5013872 %1015
1015
1015
S 3 (10)>= 10000  
BELFAST HARBOUR
GB 2
Fr 20.05. 00:2014867 %1015
1015
1015
S 3 (8) - 4 (13)>= 10000  
BELFAST HARBOUR
GB 2
Do 19.05. 23:5013872 %1015
1015
1015
S 3 (9) - 4 (14)>= 10000  
BELFAST HARBOUR
GB 2
Do 19.05. 23:2014867 %1015
1015
1015
S 3 (10) - 4 (15)>= 10000  
BELFAST HARBOUR
GB 2
Do 19.05. 22:5014867 %1015
1015
1015
S 4 (11)>= 10000  
BELFAST HARBOUR
GB 2
Do 19.05. 22:2015863 %1014
1014
1014
S 4 (12) - 5 (18)>= 10000  
BELFAST HARBOUR
GB 2
Do 19.05. 21:5015863 %1014
1014
1014
S 4 (11) - 5 (16)>= 10000  
BELFAST HARBOUR
GB 2
Do 19.05. 21:2015967 %1014
1014
1014
S 4 (11) - 5 (18)>= 10000  
BELFAST HARBOUR
GB 2
Do 19.05. 20:50151072 %1014
1014
1014
SSO 3 (10)>= 10000  
BELFAST HARBOUR
GB 2
Do 19.05. 20:2015967 %1014
1014
1014
S 4 (11)>= 10000  
BELFAST HARBOUR
GB 2
Do 19.05. 19:50161068 %1014
1014
1014
S 4 (13)>= 10000  
BELFAST HARBOUR
GB 2
Do 19.05. 19:2016963 %1014
1014
1014
S 4 (12) - 5 (18)>= 10000  
BELFAST HARBOUR
GB 2
Do 19.05. 18:5016963 %1014
1014
1014
S 4 (11) - 5 (16)>= 10000  
BELFAST HARBOUR
GB 2
Do 19.05. 18:2016963 %1014
1014
1014
S 4 (13) - 5 (20)
SO - SSW
>= 10000  
BELFAST HARBOUR
GB 2
Do 19.05. 17:5016963 %1014
1014
1014
S 4 (15) - 6 (22)>= 10000  
BELFAST HARBOUR
GB 2
Do 19.05. 17:2017959 %1014
1014
1014
S 5 (16) - 6 (23)>= 10000  
BELFAST HARBOUR
GB 2
Do 19.05. 16:5017959 %1014
1014
1014
S 4 (15) - 6 (23)>= 10000  
BELFAST HARBOUR
GB 2
Do 19.05. 16:2016859 %1014
1014
1014
S 5 (16) - 6 (24)>= 10000  
BELFAST HARBOUR
GB 2
Do 19.05. 15:5016859 %1014
1014
1014
S 4 (15)>= 10000Wolkig (1500) 
BELFAST HARBOUR
GB 2
Do 19.05. 15:2017752 %1014
1014
1014
SSW 4 (14) - 6 (24)
S - WSW
>= 10000Stark bewölkt (1500) 
BELFAST HARBOUR
GB 2
Do 19.05. 14:5017545 %1014
1014
1014
SW 5 (17) - 6 (24)>= 10000Leicht bewölkt (1400) 
BELFAST HARBOUR
GB 2
Do 19.05. 14:2017545 %1014
1014
1014
SSW 5 (17) - 6 (24)>= 10000Wolkig (1400) 
BELFAST HARBOUR
GB 2
Do 19.05. 13:5016651 %1014
1014
1014
SSW 5 (16) - 6 (22)>= 10000Wolkig (1200) 
BELFAST HARBOUR
GB 2
Do 19.05. 13:2016651 %1014
1014
1014
SW 5 (16) - 6 (21)>= 10000Wolkig (1200) 
BELFAST HARBOUR
GB 2
Do 19.05. 12:5016651 %1014
1014
1014
SSW 5 (16) - 6 (23)>= 10000  
BELFAST HARBOUR
GB 2
Do 19.05. 12:2015655 %1014
1014
1014
SW 5 (16) - 6 (23)>= 10000  
BELFAST HARBOUR
GB 2
Do 19.05. 11:5015759 %1014
1014
1014
SSW 5 (17)>= 10000Leicht bewölkt (980) 
BELFAST HARBOUR
GB 2
Do 19.05. 11:2015759 %1014
1014
1014
SSW 4 (15) - 6 (22)>= 10000  
BELFAST HARBOUR
GB 2
Do 19.05. 10:5014763 %1014
1014
1014
SSW 4 (15) - 6 (21)>= 10000  
BELFAST HARBOUR
GB 2
Do 19.05. 10:2013767 %1014
1014
1014
SW 4 (15) - 6 (21)>= 10000  
BELFAST HARBOUR
GB 2
Do 19.05. 09:5012771 %1014
1014
1014
SW 5 (16) - 6 (23)>= 10000  
BELFAST HARBOUR
GB 2
Do 19.05. 09:2012771 %1014
1014
1014
SW 4 (14) - 5 (19)>= 10000  
BELFAST HARBOUR
GB 2
Do 19.05. 08:5011776 %1014
1014
1014
SW 4 (12)>= 10000  
BELFAST HARBOUR
GB 2
Do 19.05. 08:2010782 %1013
1013
1013
SSW 4 (12) - 5 (17)>= 10000  
BELFAST HARBOUR
GB 2
Do 19.05. 07:5010782 %1013
1013
1013
S 3 (8) - 4 (14)>= 10000  
BELFAST HARBOUR
GB 2
Do 19.05. 07:209787 %1013
1013
1013
S 3 (7)>= 10000  
BELFAST HARBOUR
GB 2
Do 19.05. 06:509787 %1013
1013
1013
S 2 (6)>= 10000  
BELFAST HARBOUR
GB 2
Do 19.05. 06:208793 %1013
1013
1013
S 3 (7)>= 10000  
BELFAST HARBOUR
GB 2
Do 19.05. 05:509787 %1013
1013
1013
S 2 (5)>= 10000Wolkig (670) 
BELFAST HARBOUR
GB 2
Do 19.05. 05:208793 %1012
1012
1012
SSW 3 (7)>= 10000Wolkig (580) 
BELFAST HARBOUR
GB 2
Do 19.05. 04:509787 %1012
1012
1012
SSW 2 (6)>= 10000  
BELFAST HARBOUR
GB 2
Do 19.05. 04:2010887 %1011
1011
1011
SW 3 (10) - 5 (17)>= 10000  
BELFAST HARBOUR
GB 2
Do 19.05. 03:5011882 %1011
1011
1011
WSW 3 (10) - 5 (16)>= 10000  
BELFAST HARBOUR
GB 2
Do 19.05. 03:2011882 %1010
1010
1010
WSW 3 (10) - 5 (17)
SSW - W
>= 10000  
BELFAST HARBOUR
GB 2
Do 19.05. 02:5012876 %1010
1010
1010
WSW 4 (12) - 5 (19)>= 10000Stark bewölkt (820)
Wolkig (610)
 
BELFAST HARBOUR
GB 2
Do 19.05. 02:2012982 %1010
1010
1010
SW 4 (14) - 6 (23)>= 10000Bedeckt (1100)
Stark bewölkt (880)
Leicht bewölkt (580)
Regen (schwach)
BELFAST HARBOUR
GB 2
Do 19.05. 01:5012982 %1009
1009
1009
SSW 4 (14) - 5 (19)>= 10000Stark bewölkt (1100)
Wolkig (850)
Leicht bewölkt (670)
 
BELFAST HARBOUR
GB 2
Do 19.05. 01:2012982 %1009
1009
1009
SSW 4 (12)>= 10000  
BELFAST HARBOUR
GB 2
Do 19.05. 00:5012982 %1008
1008
1008
SSW 4 (11) - 5 (17)>= 10000  
BELFAST HARBOUR
GB 2
Do 19.05. 00:2012982 %1009
1009
1009
S 4 (14) - 5 (20)>= 10000Leicht bewölkt (1300) 
BELFAST HARBOUR
GB 2
Mi 18.05. 23:50121088 %1009
1009
1009
S 4 (13) - 5 (19)>= 10000Wolkig (1200) 
BELFAST HARBOUR
GB 2
Mi 18.05. 23:20121088 %1008
1008
1008
S 5 (16)>= 10000  
BELFAST HARBOUR
GB 2
Mi 18.05. 22:50121194 %1008
1008
1008
S 5 (17) - 7 (27)9000 Regen (schwach)
BELFAST HARBOUR
GB 2
Mi 18.05. 22:20131082 %1008
1008
1008
S 5 (20) - 7 (33)>= 10000 Regen (schwach)
BELFAST HARBOUR
GB 2
Mi 18.05. 21:50141182 %1008
1008
1008
S 6 (25) - 8 (37)
SSO - SSW
8000 Regen/Nieselregen (schwach)
BELFAST HARBOUR
GB 2
Mi 18.05. 21:20141077 %1007
1007
1007
S 6 (22) - 7 (33)
SO - SSW
>= 10000Leicht bewölkt (520) 
BELFAST HARBOUR
GB 2
Mi 18.05. 20:50141077 %1008
1008
1008
S 6 (21) - 8 (35)>= 10000Leicht bewölkt (490) 
BELFAST HARBOUR
GB 2
Mi 18.05. 20:20141077 %1008
1008
1008
S 6 (22) - 7 (31)>= 10000  
BELFAST HARBOUR
GB 2
Mi 18.05. 19:50151072 %1009
1009
1009
S 5 (20) - 7 (32)>= 10000  
BELFAST HARBOUR
GB 2
Mi 18.05. 19:20151072 %1009
1009
1009
S 6 (23) - 8 (37)>= 10000  
BELFAST HARBOUR
GB 2
Mi 18.05. 18:50151072 %1009
1009
1009
S 6 (21) - 7 (32)>= 10000  
BELFAST HARBOUR
GB 2
Mi 18.05. 18:20151072 %1010
1010
1010
S 5 (19) - 7 (31)
SO - SSW
>= 10000  
BELFAST HARBOUR
GB 2
Mi 18.05. 17:50151072 %1010
1010
1010
S 5 (20) - 7 (29)>= 10000  
BELFAST HARBOUR
GB 2
Mi 18.05. 17:20151072 %1011
1011
1011
S 5 (19) - 7 (29)>= 10000Leicht bewölkt (640) 
BELFAST HARBOUR
GB 2
Mi 18.05. 16:50151072 %1011
1011
1011
S 6 (21) - 7 (32)>= 10000Wolkig (790)
Leicht bewölkt (640)
 
BELFAST HARBOUR
GB 2
Mi 18.05. 16:20151072 %1012
1012
1012
S 5 (20) - 7 (29)>= 10000Wolkig (640) 
BELFAST HARBOUR
GB 2
Mi 18.05. 15:5015967 %1012
1012
1012
S 5 (20) - 7 (31)>= 10000Leicht bewölkt (580) 
BELFAST HARBOUR
GB 2
Mi 18.05. 15:20151072 %1012
1012
1012
S 6 (21) - 7 (31)>= 10000Stark bewölkt (820)
Stark bewölkt (640)
 

Altimeter: Einstellung am Altimeter (Höhenmesser), die Höhe 0 muss auf diesen Luftdruckwert zeigen, damit das Gerät die Stationshöhe richtig anzeigt.

NN: Luftdruck reduziert auf "Normal Null", auf Meereshöhe, dieser von der Temperatur abhängige Wert wird bisweilen unkorrekt einfach als "Luftdruck" bezeichnet. Eigentlich nur eine fiktive Größe, die es erlaubt, Stationen auf unterschiedlichen Höhen miteinander zu vergleichen.

Station: Realer Luftdruck an der Station.